createdAt,value
2018-03-16T00:01:35.774Z,92985.30
2018-03-16T00:04:02.139Z,92981.86
2018-03-16T00:06:28.513Z,92971.12
2018-03-16T00:08:54.951Z,92975.09
2018-03-16T00:11:21.393Z,92982.48
2018-03-16T00:13:47.808Z,92977.09
2018-03-16T00:16:14.314Z,92978.55
2018-03-16T00:18:40.617Z,92972.33
2018-03-16T00:21:06.976Z,92978.80
2018-03-16T00:23:33.307Z,92984.23
2018-03-16T00:25:59.625Z,92988.47
2018-03-16T00:28:25.933Z,92991.67
2018-03-16T00:30:52.297Z,92996.27
2018-03-16T00:33:18.656Z,92995.55
2018-03-16T00:35:45.063Z,92999.85
2018-03-16T00:38:11.463Z,92990.81
2018-03-16T00:40:37.749Z,92990.39
2018-03-16T00:43:04.111Z,92984.86
2018-03-16T00:45:31.677Z,92979.95
2018-03-16T00:47:57.998Z,92980.17
2018-03-16T00:50:24.320Z,92980.98
2018-03-16T00:52:50.654Z,92981.05
2018-03-16T00:55:17.053Z,92980.24
2018-03-16T00:57:43.448Z,92988.70
2018-03-16T01:00:09.859Z,92978.00
2018-03-16T01:02:36.348Z,92977.13
2018-03-16T01:05:02.726Z,92980.93
2018-03-16T01:07:29.346Z,92981.75
2018-03-16T01:09:55.759Z,92979.28
2018-03-16T01:12:22.084Z,92981.00
2018-03-16T01:14:48.537Z,92982.16
2018-03-16T01:17:14.877Z,92974.98
2018-03-16T01:19:41.275Z,92972.50
2018-03-16T01:22:07.763Z,92973.78
2018-03-16T01:24:34.729Z,92976.08
2018-03-16T01:27:01.249Z,92981.74
2018-03-16T01:29:27.690Z,92980.98
2018-03-16T01:31:54.020Z,92979.56
2018-03-16T01:34:20.379Z,92975.05
2018-03-16T01:36:46.769Z,92980.70
2018-03-16T01:39:13.149Z,92984.78
2018-03-16T01:41:39.505Z,92984.53
2018-03-16T01:44:05.954Z,92988.63
2018-03-16T01:46:32.441Z,92986.41
2018-03-16T01:48:58.880Z,92988.49
2018-03-16T01:51:25.293Z,92986.34
2018-03-16T01:53:51.633Z,92987.76
2018-03-16T01:56:18.022Z,92983.21
2018-03-16T01:58:44.377Z,92986.30
2018-03-16T02:01:10.712Z,92990.41
2018-03-16T02:03:37.043Z,92976.26
2018-03-16T02:06:03.461Z,92971.66
2018-03-16T02:08:29.776Z,92972.17
2018-03-16T02:10:56.641Z,92969.14
2018-03-16T02:13:23.123Z,92963.88
2018-03-16T02:15:49.451Z,92959.70
2018-03-16T02:18:15.760Z,92960.50
2018-03-16T02:20:42.132Z,92960.19
2018-03-16T02:23:08.483Z,92965.89
2018-03-16T02:25:34.951Z,92960.11
2018-03-16T02:28:01.334Z,92964.62
2018-03-16T02:30:27.642Z,92969.19
2018-03-16T02:32:53.971Z,92965.44
2018-03-16T02:35:20.380Z,92966.98
2018-03-16T02:37:46.711Z,92963.09
2018-03-16T02:40:13.038Z,92963.80
2018-03-16T02:42:39.392Z,92959.89
2018-03-16T02:45:05.810Z,92962.00
2018-03-16T02:47:32.138Z,92955.14
2018-03-16T02:49:58.521Z,92949.08
2018-03-16T02:52:24.884Z,92960.16
2018-03-16T02:54:51.292Z,92952.48
2018-03-16T02:57:17.647Z,92955.34
2018-03-16T02:59:43.937Z,92956.66
2018-03-16T03:02:10.333Z,92951.59
2018-03-16T03:04:36.701Z,92953.31
2018-03-16T03:07:03.064Z,92953.52
2018-03-16T03:09:29.385Z,92954.56
2018-03-16T03:11:55.832Z,92952.81
2018-03-16T03:14:22.148Z,92952.77
2018-03-16T03:16:48.573Z,92949.73
2018-03-16T03:19:14.951Z,92955.02
2018-03-16T03:21:41.256Z,92952.77
2018-03-16T03:24:07.644Z,92960.54
2018-03-16T03:26:34.008Z,92955.48
2018-03-16T03:29:00.353Z,92957.10
2018-03-16T03:31:26.687Z,92958.40
2018-03-16T03:33:53.067Z,92957.98
2018-03-16T03:36:19.429Z,92958.86
2018-03-16T03:38:45.801Z,92956.17
2018-03-16T03:41:13.141Z,92954.30
2018-03-16T03:43:39.467Z,92955.98
2018-03-16T03:46:05.928Z,92962.07
2018-03-16T03:48:32.385Z,92959.08
2018-03-16T03:50:58.708Z,92959.27
2018-03-16T03:53:25.091Z,92961.47
2018-03-16T03:55:51.567Z,92960.13
2018-03-16T03:58:17.925Z,92969.78
2018-03-16T04:00:44.251Z,92966.91
2018-03-16T04:03:10.647Z,92973.52
2018-03-16T04:05:37.023Z,92973.44
2018-03-16T04:08:03.437Z,92981.06
2018-03-16T04:10:29.894Z,92987.66
2018-03-16T04:12:56.278Z,92988.29
2018-03-16T04:15:22.659Z,92985.12
2018-03-16T04:17:49.025Z,92982.00
2018-03-16T04:20:15.342Z,92977.92
2018-03-16T04:22:41.651Z,92988.83
2018-03-16T04:25:08.129Z,92988.09
2018-03-16T04:27:34.443Z,92988.78
2018-03-16T04:30:00.849Z,92987.93
2018-03-16T04:32:27.252Z,92976.83
2018-03-16T04:34:53.633Z,92980.56
2018-03-16T04:37:20.032Z,92982.20
2018-03-16T04:39:46.416Z,92982.63
2018-03-16T04:42:12.716Z,92983.61
2018-03-16T04:44:39.147Z,92985.37
2018-03-16T04:47:05.519Z,92978.22
2018-03-16T04:49:31.842Z,92974.86
2018-03-16T04:51:58.176Z,92974.17
2018-03-16T04:54:24.642Z,92972.20
2018-03-16T04:56:51.042Z,92970.81
2018-03-16T04:59:17.346Z,92975.88
2018-03-16T05:01:43.742Z,92976.05
2018-03-16T05:04:10.072Z,92982.26
2018-03-16T05:06:36.461Z,92985.27
2018-03-16T05:09:02.929Z,92990.77
2018-03-16T05:11:29.237Z,92984.39
2018-03-16T05:13:55.697Z,92983.55
2018-03-16T05:16:22.110Z,92992.80
2018-03-16T05:18:48.543Z,92989.48
2018-03-16T05:21:14.888Z,92981.12
2018-03-16T05:23:41.267Z,92984.24
2018-03-16T05:26:07.753Z,92987.92
2018-03-16T05:28:34.143Z,92974.22
2018-03-16T05:31:00.566Z,92981.48
2018-03-16T05:33:26.960Z,92985.34
2018-03-16T05:35:53.407Z,92987.70
2018-03-16T05:38:19.933Z,92991.48
2018-03-16T05:40:46.325Z,92988.37
2018-03-16T05:43:12.757Z,92988.30
2018-03-16T05:45:39.181Z,92992.17
2018-03-16T05:48:05.633Z,92993.38
2018-03-16T05:50:31.989Z,92991.37
2018-03-16T05:52:58.422Z,92995.30
2018-03-16T05:55:24.867Z,92992.50
2018-03-16T05:57:51.214Z,93004.34
2018-03-16T06:00:18.557Z,93004.87
2018-03-16T06:02:44.942Z,92998.13
2018-03-16T06:05:11.360Z,93007.73
2018-03-16T06:07:37.772Z,93002.70
2018-03-16T06:10:04.106Z,93013.09
2018-03-16T06:12:30.450Z,93010.77
2018-03-16T06:14:56.929Z,93001.84
2018-03-16T06:17:23.414Z,93004.42
2018-03-16T06:19:49.821Z,93008.06
2018-03-16T06:22:16.222Z,93005.77
2018-03-16T06:24:42.703Z,93000.66
2018-03-16T06:27:09.136Z,93006.05
2018-03-16T06:29:35.602Z,93001.09
2018-03-16T06:32:02.107Z,92989.19
2018-03-16T06:34:28.500Z,92985.66
2018-03-16T06:36:54.925Z,92997.00
2018-03-16T06:39:21.291Z,92987.97
2018-03-16T06:41:47.628Z,92995.24
2018-03-16T06:44:14.082Z,92986.86
2018-03-16T06:46:40.405Z,92988.84
2018-03-16T06:49:07.303Z,92987.21
2018-03-16T06:51:33.703Z,92982.45
2018-03-16T06:54:00.047Z,92989.31
2018-03-16T06:56:26.497Z,92999.52
2018-03-16T06:58:52.872Z,92993.38
2018-03-16T07:01:19.245Z,92990.69
2018-03-16T07:03:45.634Z,92989.92
2018-03-16T07:06:12.150Z,92995.06
2018-03-16T07:08:39.191Z,92990.26
2018-03-16T07:11:05.587Z,92977.81
2018-03-16T07:13:31.964Z,92980.91
2018-03-16T07:15:58.406Z,92984.70
2018-03-16T07:18:24.842Z,92993.94
2018-03-16T07:20:51.254Z,92990.23
2018-03-16T07:23:17.686Z,92981.73
2018-03-16T07:25:44.827Z,92996.84
2018-03-16T07:28:11.292Z,92984.50
2018-03-16T07:30:37.636Z,92998.41
2018-03-16T07:33:04.075Z,93002.73
2018-03-16T07:35:30.582Z,93012.05
2018-03-16T07:37:57.245Z,93006.07
2018-03-16T07:40:23.612Z,93003.43
2018-03-16T07:42:50.097Z,93023.62
2018-03-16T07:45:16.726Z,93006.03
2018-03-16T07:47:43.204Z,93010.23
2018-03-16T07:50:09.677Z,93015.89
2018-03-16T07:52:36.037Z,93014.63
2018-03-16T07:55:02.495Z,93013.63
2018-03-16T07:57:29.006Z,93002.42
2018-03-16T07:59:55.525Z,92996.49
2018-03-16T08:02:22.020Z,92993.93
2018-03-16T08:04:48.413Z,92997.30
2018-03-16T08:07:14.949Z,92993.73
2018-03-16T08:09:41.422Z,93007.30
2018-03-16T08:12:08.091Z,93001.93
2018-03-16T08:14:34.751Z,92994.92
2018-03-16T08:17:01.470Z,92988.39
2018-03-16T08:19:27.995Z,93003.97
2018-03-16T08:21:54.869Z,92982.25
2018-03-16T08:24:21.414Z,92985.67
2018-03-16T08:26:48.021Z,92993.92
2018-03-16T08:29:14.460Z,92993.06
2018-03-16T08:31:40.923Z,92989.36
2018-03-16T08:34:07.431Z,92983.27
2018-03-16T08:36:33.857Z,92987.91
2018-03-16T08:39:00.316Z,92981.39
2018-03-16T08:41:26.768Z,92981.91
2018-03-16T08:43:53.178Z,92985.19
2018-03-16T08:46:19.568Z,92978.81
2018-03-16T08:48:45.942Z,92971.84
2018-03-16T08:51:12.369Z,92968.87
2018-03-16T08:53:38.778Z,92964.58
2018-03-16T08:56:05.269Z,92963.23
2018-03-16T08:58:32.670Z,92957.38
2018-03-16T09:00:59.108Z,92963.83
2018-03-16T09:03:25.554Z,92957.67
2018-03-16T09:05:51.993Z,92952.02
2018-03-16T09:08:18.400Z,92936.09
2018-03-16T09:10:44.805Z,92937.44
2018-03-16T09:13:11.194Z,92945.80
2018-03-16T09:15:37.592Z,92931.19
2018-03-16T09:18:03.983Z,92936.66
2018-03-16T09:20:30.615Z,92934.59
2018-03-16T09:22:57.059Z,92949.59
2018-03-16T09:25:23.644Z,92935.16
2018-03-16T09:27:50.065Z,92929.89
2018-03-16T09:30:16.421Z,92931.03
2018-03-16T09:32:42.845Z,92925.53
2018-03-16T09:35:09.231Z,92918.55
2018-03-16T09:37:35.962Z,92916.38
2018-03-16T09:40:02.564Z,92899.84
2018-03-16T09:42:28.930Z,92900.51
2018-03-16T09:44:55.293Z,92903.51
2018-03-16T09:47:21.785Z,92897.45
2018-03-16T09:49:48.176Z,92890.41
2018-03-16T09:52:14.610Z,92882.16
2018-03-16T09:54:53.532Z,92874.84
2018-03-16T09:57:19.994Z,92880.92
2018-03-16T09:59:46.417Z,92873.09
2018-03-16T10:02:12.901Z,92874.13
2018-03-16T10:04:39.457Z,92868.55
2018-03-16T10:07:06.003Z,92874.31
2018-03-16T10:09:32.460Z,92853.70
2018-03-16T10:11:58.837Z,92864.05
2018-03-16T10:14:25.261Z,92858.38
2018-03-16T10:16:51.693Z,92845.13
2018-03-16T10:19:18.065Z,92836.59
2018-03-16T10:21:44.530Z,92820.38
2018-03-16T10:24:10.918Z,92813.98
2018-03-16T10:26:37.474Z,92815.39
2018-03-16T10:29:04.018Z,92812.77
2018-03-16T10:31:30.795Z,92808.87
2018-03-16T10:33:57.160Z,92785.77
2018-03-16T10:36:23.692Z,92783.64
2018-03-16T10:38:50.209Z,92773.30
2018-03-16T10:41:16.746Z,92772.38
2018-03-16T10:43:43.241Z,92784.70
2018-03-16T10:46:10.798Z,92770.88
2018-03-16T10:48:37.183Z,92775.04
2018-03-16T10:51:03.550Z,92764.26
2018-03-16T10:53:30.071Z,92757.33
2018-03-16T10:55:56.578Z,92756.67
2018-03-16T10:58:23.026Z,92764.03
2018-03-16T11:00:55.514Z,92766.53
2018-03-16T11:03:21.915Z,92737.27
2018-03-16T11:05:54.373Z,92737.27
2018-03-16T11:08:26.971Z,92745.17
2018-03-16T11:10:53.378Z,92748.02
2018-03-16T11:13:19.892Z,92743.48
2018-03-16T11:15:46.658Z,92745.59
2018-03-16T11:18:13.346Z,92750.02
2018-03-16T11:20:39.768Z,92744.66
2018-03-16T11:23:06.288Z,92750.58
2018-03-16T11:25:32.797Z,92732.62
2018-03-16T11:27:59.203Z,92725.37
2018-03-16T11:30:25.803Z,92728.02
2018-03-16T11:32:52.394Z,92716.83
2018-03-16T11:35:18.794Z,92722.86
2018-03-16T11:37:45.199Z,92731.64
2018-03-16T11:40:11.645Z,92727.25
2018-03-16T11:42:38.325Z,92731.66
2018-03-16T11:45:04.787Z,92733.28
2018-03-16T11:47:31.289Z,92728.91
2018-03-16T11:49:57.699Z,92712.56
2018-03-16T11:52:24.126Z,92708.59
2018-03-16T11:54:50.565Z,92694.56
2018-03-16T11:57:16.976Z,92701.66
2018-03-16T11:59:43.449Z,92699.37
2018-03-16T12:02:09.961Z,92701.40
2018-03-16T12:04:36.786Z,92688.38
2018-03-16T12:07:03.334Z,92699.09
2018-03-16T12:09:29.745Z,92696.27
2018-03-16T12:11:56.248Z,92681.38
2018-03-16T12:14:22.820Z,92678.17
2018-03-16T12:16:49.308Z,92670.01
2018-03-16T12:19:15.868Z,92663.41
2018-03-16T12:21:42.414Z,92668.90
2018-03-16T12:24:09.051Z,92660.86
2018-03-16T12:26:36.571Z,92659.26
2018-03-16T12:29:03.148Z,92650.76
2018-03-16T12:31:29.649Z,92665.95
2018-03-16T12:33:56.010Z,92652.77
2018-03-16T12:36:23.656Z,92646.35
2018-03-16T12:38:50.123Z,92631.77
2018-03-16T12:41:16.503Z,92647.40
2018-03-16T12:43:42.992Z,92634.11
2018-03-16T12:46:09.454Z,92624.59
2018-03-16T12:48:35.896Z,92623.44
2018-03-16T12:51:02.367Z,92621.55
2018-03-16T12:53:28.927Z,92603.64
2018-03-16T12:55:56.290Z,92608.91
2018-03-16T12:58:22.687Z,92600.40
2018-03-16T13:00:49.131Z,92606.31
2018-03-16T13:03:15.523Z,92596.91
2018-03-16T13:05:41.998Z,92599.35
2018-03-16T13:08:08.480Z,92592.89
2018-03-16T13:10:34.939Z,92606.95
2018-03-16T13:13:01.316Z,92594.22
2018-03-16T13:15:27.748Z,92602.69
2018-03-16T13:17:54.126Z,92606.64
2018-03-16T13:20:20.576Z,92601.94
2018-03-16T13:22:47.094Z,92605.70
2018-03-16T13:25:13.516Z,92597.16
2018-03-16T13:27:40.016Z,92590.36
2018-03-16T13:30:06.530Z,92599.88
2018-03-16T13:32:32.938Z,92603.88
2018-03-16T13:34:59.359Z,92583.91
2018-03-16T13:37:25.835Z,92597.61
2018-03-16T13:39:52.244Z,92599.77
2018-03-16T13:42:18.991Z,92583.06
2018-03-16T13:44:45.446Z,92606.58
2018-03-16T13:47:12.279Z,92607.56
2018-03-16T13:49:38.727Z,92599.13
2018-03-16T13:52:05.286Z,92589.01
2018-03-16T13:54:31.999Z,92597.55
2018-03-16T13:56:58.464Z,92579.57
2018-03-16T13:59:25.084Z,92578.23
2018-03-16T14:01:51.587Z,92598.17
2018-03-16T14:04:18.007Z,92586.27
2018-03-16T14:06:44.534Z,92589.88
2018-03-16T14:09:11.874Z,92597.38
2018-03-16T14:11:38.383Z,92584.73
2018-03-16T14:14:04.968Z,92584.50
2018-03-16T14:16:31.441Z,92595.90
2018-03-16T14:18:57.881Z,92605.55
2018-03-16T14:21:24.328Z,92592.81
2018-03-16T14:23:50.751Z,92588.72
2018-03-16T14:26:17.146Z,92601.20
2018-03-16T14:28:43.818Z,92594.83
2018-03-16T14:31:10.216Z,92608.75
2018-03-16T14:33:36.989Z,92596.00
2018-03-16T14:36:03.918Z,92613.42
2018-03-16T14:38:30.415Z,92616.41
2018-03-16T14:40:57.270Z,92613.59
2018-03-16T14:43:23.957Z,92621.16
2018-03-16T14:45:50.470Z,92633.76
2018-03-16T14:48:17.132Z,92622.08
2018-03-16T14:50:43.632Z,92611.35
2018-03-16T14:53:10.646Z,92619.75
2018-03-16T14:55:37.193Z,92601.38
2018-03-16T14:58:04.143Z,92587.66
2018-03-16T15:00:30.804Z,92593.98
2018-03-16T15:02:57.279Z,92590.56
2018-03-16T15:05:23.902Z,92606.92
2018-03-16T15:07:51.544Z,92592.63
2018-03-16T15:10:18.125Z,92596.53
2018-03-16T15:12:45.043Z,92600.51
2018-03-16T15:15:11.469Z,92589.41
2018-03-16T15:17:37.905Z,92582.43
2018-03-16T15:20:04.471Z,92571.80
2018-03-16T15:22:30.968Z,92568.94
2018-03-16T15:24:57.674Z,92570.98
2018-03-16T15:27:24.730Z,92561.87
2018-03-16T15:29:51.284Z,92577.02
2018-03-16T15:32:18.297Z,92579.72
2018-03-16T15:34:44.780Z,92578.48
2018-03-16T15:37:11.244Z,92584.50
2018-03-16T15:39:37.726Z,92583.39
2018-03-16T15:42:04.939Z,92589.39
2018-03-16T15:44:31.868Z,92597.19
2018-03-16T15:46:58.418Z,92585.49
2018-03-16T15:49:24.921Z,92586.58
2018-03-16T15:51:51.691Z,92587.81
2018-03-16T15:54:18.454Z,92589.03
2018-03-16T15:56:45.141Z,92584.81
2018-03-16T15:59:11.717Z,92587.81
2018-03-16T16:01:38.199Z,92582.62
2018-03-16T16:04:04.777Z,92584.28
2018-03-16T16:06:31.717Z,92582.84
2018-03-16T16:08:58.347Z,92598.22
2018-03-16T16:11:25.884Z,92577.95
2018-03-16T16:13:52.556Z,92593.81
2018-03-16T16:16:20.132Z,92588.32
2018-03-16T16:18:46.973Z,92594.30
2018-03-16T16:21:13.801Z,92606.39
2018-03-16T16:23:40.579Z,92587.28
2018-03-16T16:26:07.298Z,92609.88
2018-03-16T16:28:33.871Z,92609.17
2018-03-16T16:31:00.404Z,92600.02
2018-03-16T16:33:27.150Z,92595.89
2018-03-16T16:35:54.642Z,92582.08
2018-03-16T16:38:21.782Z,92585.45
2018-03-16T16:40:48.611Z,92590.34
2018-03-16T16:43:17.225Z,92587.28
2018-03-16T16:45:44.410Z,92601.79
2018-03-16T16:48:11.036Z,92606.09
2018-03-16T16:50:38.179Z,92596.12
2018-03-16T16:53:04.935Z,92595.11
2018-03-16T16:55:32.315Z,92578.73
2018-03-16T16:57:59.149Z,92562.66
2018-03-16T17:00:26.969Z,92565.95
2018-03-16T17:02:54.186Z,92564.61
2018-03-16T17:05:21.458Z,92558.50
2018-03-16T17:07:48.128Z,92585.02
2018-03-16T17:10:15.169Z,92592.22
2018-03-16T17:12:42.343Z,92587.44
2018-03-16T17:15:09.240Z,92587.33
2018-03-16T17:17:36.171Z,92576.16
2018-03-16T17:20:03.276Z,92585.69
2018-03-16T17:22:30.342Z,92579.81
2018-03-16T17:24:57.057Z,92592.63
2018-03-16T17:27:23.820Z,92590.99
2018-03-16T17:29:51.226Z,92587.98
2018-03-16T17:32:24.242Z,92596.58
2018-03-16T17:34:45.247Z,92598.11
2018-03-16T17:37:14.397Z,92593.90
2018-03-16T17:39:41.642Z,92603.16
2018-03-16T17:42:08.437Z,92604.92
2018-03-16T17:44:34.999Z,92613.67
2018-03-16T17:47:01.726Z,92617.69
2018-03-16T17:49:28.824Z,92619.88
2018-03-16T17:51:55.689Z,92625.31
2018-03-16T17:54:22.488Z,92630.52
2018-03-16T17:56:50.110Z,92639.41
2018-03-16T17:59:17.686Z,92638.12
2018-03-16T18:01:44.583Z,92635.77
2018-03-16T18:04:11.415Z,92633.40
2018-03-16T18:06:42.999Z,92631.62
2018-03-16T18:09:10.452Z,92629.20
2018-03-16T18:11:37.787Z,92625.97
2018-03-16T18:14:04.886Z,92630.30
2018-03-16T18:16:32.123Z,92626.28
2018-03-16T18:18:59.597Z,92628.39
2018-03-16T18:21:26.743Z,92624.66
2018-03-16T18:23:53.669Z,92628.76
2018-03-16T18:26:21.681Z,92632.80
2018-03-16T18:28:49.203Z,92632.05
2018-03-16T18:31:16.774Z,92639.72
2018-03-16T18:33:44.030Z,92637.55
2018-03-16T18:36:11.127Z,92649.11
2018-03-16T18:38:38.155Z,92661.82
2018-03-16T18:41:06.301Z,92660.39
2018-03-16T18:43:33.747Z,92661.79
2018-03-16T18:46:01.636Z,92664.69
2018-03-16T18:48:30.099Z,92660.08
2018-03-16T18:50:57.782Z,92645.56
2018-03-16T18:53:25.484Z,92649.20
2018-03-16T18:55:52.844Z,92641.62
2018-03-16T18:58:20.745Z,92643.51
2018-03-16T19:00:48.026Z,92635.77
2018-03-16T19:03:15.926Z,92635.22
2018-03-16T19:05:43.780Z,92628.28
2018-03-16T19:08:10.647Z,92631.43
2018-03-16T19:10:37.548Z,92636.19
2018-03-16T19:13:05.140Z,92632.08
2018-03-16T19:15:32.083Z,92636.66
2018-03-16T19:17:59.162Z,92642.42
2018-03-16T19:20:26.501Z,92646.29
2018-03-16T19:22:53.340Z,92656.48
2018-03-16T19:25:22.593Z,92657.61
2018-03-16T19:27:49.687Z,92657.97
2018-03-16T19:30:17.813Z,92662.69
2018-03-16T19:32:45.003Z,92655.05
2018-03-16T19:35:12.444Z,92656.81
2018-03-16T19:37:39.383Z,92663.81
2018-03-16T19:40:06.350Z,92663.44
2018-03-16T19:42:33.145Z,92662.51
2018-03-16T19:45:00.048Z,92660.85
2018-03-16T19:47:27.440Z,92666.67
2018-03-16T19:49:54.874Z,92664.85
2018-03-16T19:52:21.863Z,92670.34
2018-03-16T19:54:48.778Z,92653.42
2018-03-16T19:57:16.261Z,92663.88
2018-03-16T19:59:48.522Z,92665.64
2018-03-16T20:02:15.497Z,92653.45
2018-03-16T20:04:42.668Z,92671.38
2018-03-16T20:07:10.755Z,92681.77
2018-03-16T20:09:37.805Z,92682.04
2018-03-16T20:12:04.691Z,92679.08
2018-03-16T20:14:31.524Z,92695.14
2018-03-16T20:16:58.824Z,92689.50
2018-03-16T20:19:26.270Z,92684.30
2018-03-16T20:21:53.089Z,92676.34
2018-03-16T20:24:20.058Z,92669.96
2018-03-16T20:26:47.238Z,92677.95
2018-03-16T20:29:13.991Z,92672.00
2018-03-16T20:31:40.751Z,92666.25
2018-03-16T20:34:07.430Z,92666.55
2018-03-16T20:36:37.535Z,92666.95
2018-03-16T20:39:05.529Z,92673.44
2018-03-16T20:41:32.540Z,92665.28
2018-03-16T20:43:59.116Z,92672.14
2018-03-16T20:46:25.910Z,92664.38
2018-03-16T20:48:52.539Z,92667.03
2018-03-16T20:51:19.439Z,92658.12
2018-03-16T20:53:46.160Z,92656.73
2018-03-16T20:56:13.039Z,92641.14
2018-03-16T20:58:39.524Z,92653.63
2018-03-16T21:01:05.972Z,92659.14
2018-03-16T21:03:32.410Z,92664.34
2018-03-16T21:05:59.214Z,92658.45
2018-03-16T21:08:25.857Z,92643.45
2018-03-16T21:10:52.541Z,92656.02
2018-03-16T21:13:19.056Z,92660.33
2018-03-16T21:15:45.537Z,92664.64
2018-03-16T21:18:14.060Z,92658.42
2018-03-16T21:20:40.571Z,92654.86
2018-03-16T21:23:07.052Z,92639.28
2018-03-16T21:25:34.811Z,92661.37
2018-03-16T21:28:01.367Z,92642.95
2018-03-16T21:30:28.069Z,92660.48
2018-03-16T21:32:54.537Z,92645.55
2018-03-16T21:35:21.451Z,92645.14
2018-03-16T21:37:48.068Z,92635.77
2018-03-16T21:40:14.597Z,92633.74
2018-03-16T21:42:41.193Z,92627.24
2018-03-16T21:45:07.602Z,92625.38
2018-03-16T21:47:34.075Z,92621.96
2018-03-16T21:50:00.677Z,92624.56
2018-03-16T21:52:27.841Z,92622.20
2018-03-16T21:54:54.251Z,92636.23
2018-03-16T21:57:20.781Z,92631.95
2018-03-16T21:59:47.252Z,92642.16
2018-03-16T22:02:13.720Z,92640.27
2018-03-16T22:04:40.098Z,92648.36
2018-03-16T22:07:06.588Z,92645.58
2018-03-16T22:09:33.114Z,92653.73
2018-03-16T22:11:59.547Z,92652.13
2018-03-16T22:14:26.033Z,92644.48
2018-03-16T22:16:52.619Z,92642.86
2018-03-16T22:19:19.095Z,92649.00
2018-03-16T22:21:45.530Z,92647.82
2018-03-16T22:24:11.967Z,92629.00
2018-03-16T22:26:38.437Z,92629.16
2018-03-16T22:29:04.824Z,92642.42
2018-03-16T22:31:31.180Z,92615.25
2018-03-16T22:33:57.524Z,92624.88
2018-03-16T22:36:23.952Z,92641.89
2018-03-16T22:38:50.411Z,92617.82
2018-03-16T22:41:16.855Z,92633.40
2018-03-16T22:43:43.358Z,92637.72
2018-03-16T22:46:17.831Z,92628.27
2018-03-16T22:48:44.251Z,92642.89
2018-03-16T22:51:10.665Z,92643.80
2018-03-16T22:53:37.091Z,92644.70
2018-03-16T22:56:14.896Z,92648.45
2018-03-16T22:58:41.295Z,92649.72
2018-03-16T23:01:09.053Z,92638.15
2018-03-16T23:03:36.428Z,92622.70
2018-03-16T23:06:03.044Z,92626.72
2018-03-16T23:08:29.895Z,92623.28
2018-03-16T23:10:56.701Z,92619.23
2018-03-16T23:13:23.129Z,92616.88
2018-03-16T23:15:49.572Z,92613.55
2018-03-16T23:18:16.124Z,92612.50
2018-03-16T23:20:42.610Z,92605.15
2018-03-16T23:23:09.021Z,92608.44
2018-03-16T23:25:35.512Z,92599.72
2018-03-16T23:28:03.497Z,92606.30
2018-03-16T23:30:29.972Z,92603.78
2018-03-16T23:32:56.386Z,92609.72
2018-03-16T23:35:22.809Z,92604.07
2018-03-16T23:37:49.701Z,92610.45
2018-03-16T23:40:16.130Z,92603.38
2018-03-16T23:42:42.550Z,92605.79
2018-03-16T23:45:08.927Z,92601.83
2018-03-16T23:47:35.410Z,92607.98
2018-03-16T23:50:01.756Z,92599.94
2018-03-16T23:52:28.237Z,92589.47
2018-03-16T23:54:54.632Z,92600.74
2018-03-16T23:57:21.173Z,92595.92
2018-03-16T23:59:47.565Z,92591.45
